createdAt,value
2018-04-11T00:00:44.081Z,12.3
2018-04-11T00:02:03.997Z,12.5
2018-04-11T00:03:28.908Z,12.3
2018-04-11T00:04:48.794Z,12.6
2018-04-11T00:06:08.676Z,12.5
2018-04-11T00:07:28.573Z,12.5
2018-04-11T00:08:48.397Z,12.4
2018-04-11T00:10:13.307Z,12.5
2018-04-11T00:11:38.194Z,12.4
2018-04-11T00:13:00.574Z,12.4
2018-04-11T00:14:20.449Z,11.7
2018-04-11T00:15:40.311Z,12.6
2018-04-11T00:17:00.157Z,12
2018-04-11T00:18:25.100Z,12.6
2018-04-11T00:19:44.934Z,12.6
2018-04-11T00:21:12.380Z,13.1
2018-04-11T00:22:32.205Z,12.6
2018-04-11T00:23:52.067Z,12.6
2018-04-11T00:25:11.900Z,12.6
2018-04-11T00:26:31.730Z,13
2018-04-11T00:27:56.640Z,13
2018-04-11T00:29:21.526Z,13.9
2018-04-11T00:30:41.375Z,13.1
2018-04-11T00:32:08.867Z,12.8
2018-04-11T00:33:28.709Z,12.8
2018-04-11T00:34:48.538Z,13.1
2018-04-11T00:36:13.495Z,13.1
2018-04-11T00:37:35.909Z,13.1
2018-04-11T00:38:58.266Z,12.8
2018-04-11T00:40:18.096Z,12.8
2018-04-11T00:41:37.944Z,12.6
2018-04-11T00:43:02.867Z,12.9
2018-04-11T00:44:22.720Z,12.6
2018-04-11T00:45:42.602Z,12.9
2018-04-11T00:47:04.974Z,12.7
2018-04-11T00:48:24.860Z,12.7
2018-04-11T00:49:44.707Z,12.7
2018-04-11T00:51:04.557Z,12.9
2018-04-11T00:52:24.457Z,12.9
2018-04-11T00:53:44.305Z,12.8
2018-04-11T00:55:06.670Z,12.5
2018-04-11T00:56:26.545Z,12.8
2018-04-11T00:57:51.450Z,12.9
2018-04-11T00:59:13.844Z,12.9
2018-04-11T01:00:33.719Z,12.7
2018-04-11T01:01:53.559Z,12.6
2018-04-11T01:03:13.423Z,12.7
2018-04-11T01:04:35.848Z,12.9
2018-04-11T01:05:58.195Z,12.4
2018-04-11T01:07:18.020Z,11.6
2018-04-11T01:08:37.850Z,11.7
2018-04-11T01:10:02.747Z,12.5
2018-04-11T01:11:32.728Z,11.4
2018-04-11T01:12:52.573Z,12.8
2018-04-11T01:14:12.451Z,13.2
2018-04-11T01:15:34.797Z,12.7
2018-04-11T01:16:54.624Z,12.6
2018-04-11T01:18:16.985Z,12.5
2018-04-11T01:19:36.811Z,12
2018-04-11T01:20:59.221Z,11.8
2018-04-11T01:22:19.111Z,12.1
2018-04-11T01:23:38.981Z,12.2
2018-04-11T01:25:01.350Z,12.4
2018-04-11T01:26:21.173Z,12.6
2018-04-11T01:27:40.990Z,13.6
2018-04-11T01:29:00.861Z,14.1
2018-04-11T01:30:20.688Z,14.4
2018-04-11T01:31:43.049Z,14.3
2018-04-11T01:33:02.875Z,14.3
2018-04-11T01:34:22.695Z,14.1
2018-04-11T01:35:42.517Z,14.2
2018-04-11T01:37:02.417Z,14.3
2018-04-11T01:38:22.269Z,14.3
2018-04-11T01:39:47.194Z,14.1
2018-04-11T01:41:07.020Z,14.2
2018-04-11T01:42:26.853Z,14.2
2018-04-11T01:43:49.227Z,14.2
2018-04-11T01:45:11.633Z,14.2
2018-04-11T01:46:36.529Z,14.2
2018-04-11T01:47:56.342Z,14.2
2018-04-11T01:49:16.207Z,14.2
2018-04-11T01:50:36.070Z,14.3
2018-04-11T01:51:55.888Z,14.3
2018-04-11T01:53:15.713Z,14.5
2018-04-11T01:54:35.543Z,14.6
2018-04-11T01:55:57.900Z,14.5
2018-04-11T01:57:20.252Z,14.5
2018-04-11T01:58:40.077Z,14.5
2018-04-11T02:00:02.494Z,14.9
2018-04-11T02:01:22.321Z,14.9
2018-04-11T02:02:44.736Z,15
2018-04-11T02:04:04.595Z,14.9
2018-04-11T02:05:26.994Z,15
2018-04-11T02:06:46.867Z,15
2018-04-11T02:08:06.685Z,15
2018-04-11T02:09:26.501Z,15.1
2018-04-11T02:10:46.333Z,15.1
2018-04-11T02:12:06.154Z,15.1
2018-04-11T02:13:36.139Z,15.1
2018-04-11T02:15:01.023Z,15
2018-04-11T02:16:28.530Z,15
2018-04-11T02:17:48.378Z,15.1
2018-04-11T02:19:10.724Z,15
2018-04-11T02:20:30.569Z,15.1
2018-04-11T02:21:50.402Z,15.2
2018-04-11T02:23:12.762Z,15
2018-04-11T02:24:32.588Z,14.9
2018-04-11T02:25:52.415Z,15
2018-04-11T02:27:17.351Z,15
2018-04-11T02:28:39.710Z,14.9
2018-04-11T02:29:59.545Z,14.9
2018-04-11T02:31:26.963Z,14.9
2018-04-11T02:32:54.403Z,14.9
2018-04-11T02:34:24.357Z,14.9
2018-04-11T02:35:44.225Z,14.9
2018-04-11T02:37:04.077Z,14.9
2018-04-11T02:38:23.996Z,15
2018-04-11T02:39:51.413Z,15
2018-04-11T02:41:11.238Z,15
2018-04-11T02:42:31.059Z,15
2018-04-11T02:43:50.879Z,15
2018-04-11T02:45:13.264Z,14.7
2018-04-11T02:46:35.636Z,14.8
2018-04-11T02:47:55.466Z,14.8
2018-04-11T02:49:20.355Z,14.9
2018-04-11T02:50:40.232Z,14.9
2018-04-11T02:52:05.111Z,15
2018-04-11T02:53:24.989Z,15
2018-04-11T02:54:47.362Z,14.9
2018-04-11T02:56:19.882Z,14.8
2018-04-11T02:57:52.395Z,14.9
2018-04-11T02:59:14.755Z,15
2018-04-11T03:00:37.106Z,14.9
2018-04-11T03:01:56.929Z,14.9
2018-04-11T03:03:16.791Z,14.9
2018-04-11T03:04:44.205Z,14.9
2018-04-11T03:06:06.575Z,14.8
2018-04-11T03:07:26.437Z,14.9
2018-04-11T03:08:46.278Z,14.9
2018-04-11T03:10:06.154Z,14.9
2018-04-11T03:11:41.176Z,15
2018-04-11T03:13:01.029Z,15
2018-04-11T03:14:25.933Z,14.8
2018-04-11T03:15:45.748Z,14.8
2018-04-11T03:17:05.570Z,14.8
2018-04-11T03:18:25.396Z,14.9
2018-04-11T03:19:50.270Z,14.9
2018-04-11T03:21:12.633Z,14.9
2018-04-11T03:22:35.023Z,14.8
2018-04-11T03:23:57.387Z,15
2018-04-11T03:25:17.264Z,15.1
2018-04-11T03:26:42.199Z,14.9
2018-04-11T03:28:14.674Z,14.9
2018-04-11T03:29:34.536Z,14.9
2018-04-11T03:30:59.411Z,15
2018-04-11T03:32:19.238Z,14.9
2018-04-11T03:33:39.072Z,15
2018-04-11T03:35:03.963Z,15
2018-04-11T03:36:23.841Z,15
2018-04-11T03:37:43.725Z,14.9
2018-04-11T03:39:11.143Z,15
2018-04-11T03:40:36.036Z,15
2018-04-11T03:42:00.909Z,15.1
2018-04-11T03:43:33.420Z,15.2
2018-04-11T03:44:53.272Z,15.2
2018-04-11T03:46:15.634Z,15.1
2018-04-11T03:47:35.489Z,15.1
2018-04-11T03:48:55.316Z,15
2018-04-11T03:50:17.662Z,14.9
2018-04-11T03:51:37.514Z,14.6
2018-04-11T03:52:57.346Z,14.5
2018-04-11T03:54:17.191Z,14.8
2018-04-11T03:55:37.069Z,14.9
2018-04-11T03:56:59.426Z,14.9
2018-04-11T03:58:19.290Z,15
2018-04-11T03:59:41.643Z,14.9
2018-04-11T04:01:01.515Z,14.8
2018-04-11T04:02:23.895Z,14.9
2018-04-11T04:03:43.789Z,15
2018-04-11T04:05:03.635Z,15
2018-04-11T04:06:25.976Z,15
2018-04-11T04:07:45.899Z,14.9
2018-04-11T04:09:05.784Z,14.8
2018-04-11T04:10:25.656Z,15
2018-04-11T04:11:48.073Z,15.1
2018-04-11T04:13:18.059Z,15.2
2018-04-11T04:14:40.407Z,15.2
2018-04-11T04:16:00.228Z,15.1
2018-04-11T04:17:20.058Z,15.1
2018-04-11T04:18:39.902Z,14.9
2018-04-11T04:19:59.743Z,14.8
2018-04-11T04:21:24.613Z,14.5
2018-04-11T04:22:49.566Z,14.6
2018-04-11T04:24:14.504Z,14.7
2018-04-11T04:25:36.856Z,14.6
2018-04-11T04:27:01.769Z,14.6
2018-04-11T04:28:21.606Z,14.7
2018-04-11T04:29:41.446Z,14.8
2018-04-11T04:31:06.354Z,14.7
2018-04-11T04:32:26.180Z,14.8
2018-04-11T04:33:48.611Z,14.7
2018-04-11T04:35:08.482Z,14.7
2018-04-11T04:36:28.358Z,14.9
2018-04-11T04:37:48.202Z,14.8
2018-04-11T04:39:10.568Z,14.8
2018-04-11T04:40:35.512Z,13.5
2018-04-11T04:42:05.480Z,13.3
2018-04-11T04:43:25.305Z,14
2018-04-11T04:44:45.120Z,14
2018-04-11T04:46:04.983Z,14
2018-04-11T04:47:29.881Z,14.3
2018-04-11T04:48:49.707Z,14
2018-04-11T04:50:12.062Z,14.1
2018-04-11T04:51:31.892Z,14.4
2018-04-11T04:52:56.783Z,14.4
2018-04-11T04:54:16.639Z,14.2
2018-04-11T04:55:36.489Z,14.2
2018-04-11T04:56:56.316Z,14.3
2018-04-11T04:58:16.150Z,14.2
2018-04-11T04:59:38.547Z,14.3
2018-04-11T05:01:03.454Z,14.3
2018-04-11T05:02:25.810Z,14.4
2018-04-11T05:03:45.685Z,14.5
2018-04-11T05:05:18.228Z,14.6
2018-04-11T05:06:40.638Z,14.7
2018-04-11T05:08:03.024Z,14.7
2018-04-11T05:09:22.874Z,14.7
2018-04-11T05:10:45.239Z,14.7
2018-04-11T05:12:05.067Z,14.6
2018-04-11T05:13:24.922Z,14.5
2018-04-11T05:14:47.273Z,14.7
2018-04-11T05:16:09.630Z,14.8
2018-04-11T05:17:31.997Z,14.7
2018-04-11T05:18:56.882Z,14.8
2018-04-11T05:20:19.243Z,14.6
2018-04-11T05:21:39.124Z,14.6
2018-04-11T05:23:01.535Z,14.6
2018-04-11T05:24:23.891Z,14.5
2018-04-11T05:25:46.254Z,14.4
2018-04-11T05:27:06.113Z,14.3
2018-04-11T05:28:25.952Z,14.4
2018-04-11T05:29:45.803Z,14.4
2018-04-11T05:31:05.672Z,14.4
2018-04-11T05:32:28.107Z,14.2
2018-04-11T05:33:47.971Z,14
2018-04-11T05:35:07.846Z,14.1
2018-04-11T05:36:32.764Z,14
2018-04-11T05:37:52.635Z,14.2
2018-04-11T05:39:12.472Z,14.2
2018-04-11T05:40:34.823Z,14.2
2018-04-11T05:41:59.740Z,14.2
2018-04-11T05:43:22.104Z,14.2
2018-04-11T05:44:41.937Z,14.2
2018-04-11T05:46:01.761Z,13.7
2018-04-11T05:47:21.588Z,14.3
2018-04-11T05:48:46.483Z,14.3
2018-04-11T05:50:06.306Z,14.3
2018-04-11T05:51:26.182Z,14.3
2018-04-11T05:52:48.587Z,14.1
2018-04-11T05:54:08.472Z,14.2
2018-04-11T05:55:28.358Z,14.2
2018-04-11T05:56:48.214Z,14.1
2018-04-11T05:58:08.064Z,14.1
2018-04-11T05:59:27.906Z,14.2
2018-04-11T06:00:52.907Z,14.2
2018-04-11T06:02:17.825Z,14.2
2018-04-11T06:03:40.183Z,14.1
2018-04-11T06:05:00.012Z,14.1
2018-04-11T06:06:19.853Z,14.2
2018-04-11T06:07:42.223Z,14.2
2018-04-11T06:09:02.085Z,14.2
2018-04-11T06:10:21.912Z,14.3
2018-04-11T06:11:44.367Z,14.2
2018-04-11T06:13:04.220Z,14.2
2018-04-11T06:14:29.101Z,14.2
2018-04-11T06:15:48.969Z,14.3
2018-04-11T06:17:13.861Z,14.3
2018-04-11T06:18:33.717Z,14.2
2018-04-11T06:19:58.605Z,14.3
2018-04-11T06:21:18.443Z,14.2
2018-04-11T06:22:38.271Z,14.4
2018-04-11T06:23:58.171Z,14.3
2018-04-11T06:25:20.524Z,14.3
2018-04-11T06:26:42.909Z,14.3
2018-04-11T06:28:02.773Z,14.3
2018-04-11T06:29:22.680Z,14.2
2018-04-11T06:30:47.620Z,14.2
2018-04-11T06:32:10.027Z,14.3
2018-04-11T06:33:32.441Z,14.3
2018-04-11T06:34:52.342Z,14.3
2018-04-11T06:36:19.768Z,14.3
2018-04-11T06:37:39.592Z,14.3
2018-04-11T06:39:01.965Z,14.3
2018-04-11T06:40:26.966Z,14.3
2018-04-11T06:41:46.800Z,14.2
2018-04-11T06:43:16.745Z,14.2
2018-04-11T06:44:36.567Z,14.3
2018-04-11T06:45:56.391Z,13.7
2018-04-11T06:47:21.315Z,13.9
2018-04-11T06:48:43.746Z,13.9
2018-04-11T06:50:13.725Z,13.8
2018-04-11T06:51:43.672Z,13.8
2018-04-11T06:53:08.608Z,13.7
2018-04-11T06:54:28.430Z,13.7
2018-04-11T06:55:48.244Z,13.7
2018-04-11T06:57:10.673Z,13.8
2018-04-11T06:58:33.059Z,14.5
2018-04-11T06:59:52.958Z,14.6
2018-04-11T07:01:17.900Z,13.8
2018-04-11T07:02:37.815Z,13.9
2018-04-11T07:03:57.672Z,13.9
2018-04-11T07:05:17.568Z,13.9
2018-04-11T07:06:37.423Z,14.6
2018-04-11T07:07:57.326Z,14.5
2018-04-11T07:09:17.172Z,15
2018-04-11T07:10:42.078Z,14.8
2018-04-11T07:12:01.917Z,14.8
2018-04-11T07:13:21.823Z,14.7
2018-04-11T07:14:44.197Z,14.6
2018-04-11T07:16:11.612Z,15.1
2018-04-11T07:17:36.558Z,15.2
2018-04-11T07:19:01.443Z,15.5
2018-04-11T07:20:31.437Z,15.5
2018-04-11T07:21:53.788Z,15.5
2018-04-11T07:23:13.660Z,15.4
2018-04-11T07:24:33.482Z,15
2018-04-11T07:25:53.313Z,14.2
2018-04-11T07:27:13.171Z,14.9
2018-04-11T07:28:33.068Z,14.8
2018-04-11T07:29:52.916Z,13.8
2018-04-11T07:31:12.761Z,13.7
2018-04-11T07:32:32.671Z,13.7
2018-04-11T07:33:52.545Z,13.8
2018-04-11T07:35:14.909Z,14.9
2018-04-11T07:36:34.781Z,14.2
2018-04-11T07:37:54.624Z,14.1
2018-04-11T07:39:14.477Z,14.1
2018-04-11T07:40:39.357Z,12.9
2018-04-11T07:41:59.187Z,12.9
2018-04-11T07:43:19.005Z,13.1
2018-04-11T07:44:41.373Z,13.4
2018-04-11T07:46:01.277Z,13.1
2018-04-11T07:47:26.245Z,13.3
2018-04-11T07:48:51.149Z,13.5
2018-04-11T07:50:11.025Z,13.5
2018-04-11T07:51:33.369Z,13.6
2018-04-11T07:52:55.741Z,13.6
2018-04-11T07:54:15.617Z,13.5
2018-04-11T07:55:35.459Z,13.6
2018-04-11T07:56:55.285Z,13.6
2018-04-11T07:58:17.702Z,13.8
2018-04-11T07:59:37.564Z,14.1
2018-04-11T08:00:57.434Z,14.1
2018-04-11T08:02:27.424Z,14.3
2018-04-11T08:03:49.787Z,14.5
2018-04-11T08:05:09.616Z,14.4
2018-04-11T08:06:29.499Z,14.4
2018-04-11T08:07:49.355Z,14
2018-04-11T08:09:11.754Z,14.6
2018-04-11T08:10:34.134Z,14.3
2018-04-11T08:11:54.013Z,14.6
2018-04-11T08:13:16.363Z,14.2
2018-04-11T08:14:41.266Z,15.2
2018-04-11T08:16:01.089Z,14.3
2018-04-11T08:17:23.468Z,14.5
2018-04-11T08:18:43.294Z,14.5
2018-04-11T08:20:13.235Z,14.6
2018-04-11T08:21:38.123Z,14.4
2018-04-11T08:23:08.083Z,14.2
2018-04-11T08:24:27.912Z,14.5
2018-04-11T08:25:47.745Z,14.2
2018-04-11T08:27:15.152Z,14.4
2018-04-11T08:28:35.024Z,14
2018-04-11T08:29:54.857Z,14
2018-04-11T08:31:14.685Z,14
2018-04-11T08:32:39.566Z,14
2018-04-11T08:34:01.942Z,14.1
2018-04-11T08:35:24.331Z,14.3
2018-04-11T08:36:44.214Z,14.2
2018-04-11T08:38:06.599Z,14.4
2018-04-11T08:39:28.992Z,14.4
2018-04-11T08:40:51.345Z,14.4
2018-04-11T08:42:11.192Z,14.5
2018-04-11T08:43:38.648Z,14.5
2018-04-11T08:45:01.028Z,14.5
2018-04-11T08:46:23.398Z,14.5
2018-04-11T08:47:43.224Z,14.5
2018-04-11T08:49:23.316Z,14.7
2018-04-11T08:50:43.153Z,14.7
2018-04-11T08:52:08.037Z,14.7
2018-04-11T08:53:27.860Z,14.7
2018-04-11T08:54:47.682Z,14.7
2018-04-11T08:56:10.038Z,14.7
2018-04-11T08:57:32.415Z,14.7
2018-04-11T08:58:52.272Z,14.7
2018-04-11T09:00:12.127Z,14.7
2018-04-11T09:01:37.036Z,14.7
2018-04-11T09:02:56.901Z,14.8
2018-04-11T09:04:19.268Z,14.7
2018-04-11T09:05:39.100Z,14.8
2018-04-11T09:06:58.921Z,14.8
2018-04-11T09:08:18.753Z,14.8
2018-04-11T09:09:38.576Z,14.7
2018-04-11T09:11:00.922Z,14.7
2018-04-11T09:12:23.276Z,14.7
2018-04-11T09:13:43.097Z,14.7
2018-04-11T09:15:05.469Z,14.7
2018-04-11T09:16:32.938Z,14.7
2018-04-11T09:17:55.347Z,14.8
2018-04-11T09:19:15.172Z,14.8
2018-04-11T09:20:40.055Z,14.9
2018-04-11T09:21:59.879Z,14.8
2018-04-11T09:23:19.734Z,14.8
2018-04-11T09:24:39.562Z,14.8
2018-04-11T09:26:07.046Z,14.9
2018-04-11T09:27:26.897Z,14.9
2018-04-11T09:28:46.764Z,14.9
2018-04-11T09:30:11.719Z,14.9
2018-04-11T09:31:34.079Z,14.9
2018-04-11T09:32:53.899Z,14.9
2018-04-11T09:34:16.246Z,14.8
2018-04-11T09:35:36.081Z,14.8
2018-04-11T09:36:58.427Z,14.4
2018-04-11T09:38:23.359Z,15.1
2018-04-11T09:39:43.241Z,15
2018-04-11T09:41:03.058Z,15.3
2018-04-11T09:42:22.886Z,15.2
2018-04-11T09:43:42.744Z,15.2
2018-04-11T09:45:10.210Z,15.2
2018-04-11T09:46:37.659Z,15.2
2018-04-11T09:48:00.033Z,15.4
2018-04-11T09:49:22.403Z,15.4
2018-04-11T09:50:44.805Z,15.4
2018-04-11T09:52:04.663Z,15.4
2018-04-11T09:53:24.487Z,15.5
2018-04-11T09:54:46.928Z,15.6
2018-04-11T09:56:06.773Z,15.5
2018-04-11T09:57:26.628Z,15.5
2018-04-11T09:58:46.523Z,15.5
2018-04-11T10:00:08.903Z,15.5
2018-04-11T10:01:28.723Z,15.5
2018-04-11T10:02:51.087Z,15.4
2018-04-11T10:04:13.448Z,15.4
2018-04-11T10:05:38.330Z,15.4
2018-04-11T10:07:00.725Z,15.5
2018-04-11T10:08:20.559Z,15.5
2018-04-11T10:09:40.383Z,15.5
2018-04-11T10:11:00.225Z,15.6
2018-04-11T10:12:20.083Z,15.5
2018-04-11T10:13:42.490Z,15.6
2018-04-11T10:15:02.360Z,15.6
2018-04-11T10:16:27.314Z,15.6
2018-04-11T10:17:47.170Z,15.6
2018-04-11T10:19:09.536Z,15.6
2018-04-11T10:20:29.414Z,15.5
2018-04-11T10:21:56.845Z,15.5
2018-04-11T10:23:19.236Z,15.6
2018-04-11T10:24:39.059Z,15.5
2018-04-11T10:26:01.438Z,15.6
2018-04-11T10:27:21.278Z,15.6
2018-04-11T10:28:43.662Z,15.7
2018-04-11T10:30:03.482Z,15.7
2018-04-11T10:31:23.374Z,15.7
2018-04-11T10:32:48.302Z,15.8
2018-04-11T10:34:08.171Z,15.8
2018-04-11T10:35:33.054Z,15.9
2018-04-11T10:36:57.962Z,15.9
2018-04-11T10:38:17.791Z,15.9
2018-04-11T10:39:40.165Z,15.9
2018-04-11T10:41:02.519Z,16
2018-04-11T10:42:24.891Z,15.9
2018-04-11T10:43:47.251Z,16
2018-04-11T10:45:12.155Z,16
2018-04-11T10:46:32.005Z,16
2018-04-11T10:47:51.899Z,16.1
2018-04-11T10:49:11.794Z,16.2
2018-04-11T10:50:31.642Z,16.2
2018-04-11T10:51:51.493Z,16.1
2018-04-11T10:53:16.443Z,16.1
2018-04-11T10:54:38.802Z,16
2018-04-11T10:56:01.241Z,15.6
2018-04-11T10:57:38.804Z,15.7
2018-04-11T10:58:58.637Z,15.7
2018-04-11T11:00:28.581Z,15.7
2018-04-11T11:01:50.955Z,15.7
2018-04-11T11:03:15.900Z,15.7
2018-04-11T11:04:35.784Z,15.8
2018-04-11T11:05:55.615Z,15.8
2018-04-11T11:07:15.438Z,16.2
2018-04-11T11:08:37.798Z,16.3
2018-04-11T11:10:00.151Z,16.3
2018-04-11T11:11:19.969Z,16.2
2018-04-11T11:12:44.851Z,16.3
2018-04-11T11:14:04.732Z,16.4
2018-04-11T11:15:27.096Z,16.4
2018-04-11T11:16:46.941Z,16.4
2018-04-11T11:18:16.912Z,16.4
2018-04-11T11:19:36.809Z,16.4
2018-04-11T11:20:59.170Z,15.9
2018-04-11T11:22:19.040Z,16.6
2018-04-11T11:23:43.924Z,15.5
2018-04-11T11:25:03.745Z,15.9
2018-04-11T11:26:23.628Z,16.3
2018-04-11T11:27:43.454Z,16.3
2018-04-11T11:29:03.273Z,16.7
2018-04-11T11:30:23.103Z,16.6
2018-04-11T11:31:45.471Z,16.7
2018-04-11T11:33:05.288Z,16.8
2018-04-11T11:34:37.840Z,17.1
2018-04-11T11:36:15.371Z,17
2018-04-11T11:37:42.792Z,16.9
2018-04-11T11:39:07.708Z,16.7
2018-04-11T11:40:27.546Z,17
2018-04-11T11:41:54.982Z,16.9
2018-04-11T11:43:17.332Z,17
2018-04-11T11:44:42.215Z,17
2018-04-11T11:46:07.155Z,16.6
2018-04-11T11:47:32.054Z,16.8
2018-04-11T11:48:51.903Z,16.8
2018-04-11T11:50:11.821Z,16.7
2018-04-11T11:51:36.732Z,17.1
2018-04-11T11:52:56.592Z,17
2018-04-11T11:54:16.448Z,16.8
2018-04-11T11:55:43.922Z,16.9
2018-04-11T11:57:03.800Z,17
2018-04-11T11:58:26.217Z,16.1
2018-04-11T11:59:46.103Z,16.5
2018-04-11T12:01:08.488Z,16.5
2018-04-11T12:02:30.853Z,16.5
2018-04-11T12:03:53.220Z,16.5
2018-04-11T12:05:18.111Z,16.6
2018-04-11T12:06:40.464Z,16.4
2018-04-11T12:08:00.292Z,15.5
2018-04-11T12:09:22.698Z,15.5
2018-04-11T12:10:42.571Z,15.5
2018-04-11T12:12:02.399Z,15.5
2018-04-11T12:13:22.222Z,15.5
2018-04-11T12:14:54.734Z,15.6
2018-04-11T12:16:19.648Z,15.7
2018-04-11T12:17:42.035Z,15.9
2018-04-11T12:19:04.377Z,16.5
2018-04-11T12:20:24.254Z,16.9
2018-04-11T12:21:51.696Z,17
2018-04-11T12:23:19.142Z,17.5
2018-04-11T12:24:38.966Z,17.6
2018-04-11T12:25:58.793Z,17.6
2018-04-11T12:27:18.640Z,17.7
2018-04-11T12:28:46.102Z,17.7
2018-04-11T12:30:05.966Z,17.7
2018-04-11T12:31:25.838Z,17.8
2018-04-11T12:32:48.217Z,17.9
2018-04-11T12:34:08.047Z,18
2018-04-11T12:35:30.394Z,18
2018-04-11T12:36:50.216Z,18
2018-04-11T12:38:10.050Z,18
2018-04-11T12:39:29.893Z,18
2018-04-11T12:40:49.722Z,18
2018-04-11T12:42:14.628Z,18
2018-04-11T12:43:34.464Z,18.1
2018-04-11T12:44:54.323Z,18.1
2018-04-11T12:46:14.185Z,18.1
2018-04-11T12:47:34.007Z,18.2
2018-04-11T12:48:53.847Z,18.3
2018-04-11T12:50:13.677Z,18.3
2018-04-11T12:51:33.498Z,18.3
2018-04-11T12:53:00.934Z,18.3
2018-04-11T12:54:30.920Z,18.4
2018-04-11T12:55:50.773Z,18.3
2018-04-11T12:57:18.204Z,18.3
2018-04-11T12:58:38.027Z,18.4
2018-04-11T12:59:57.900Z,18.4
2018-04-11T13:01:25.308Z,18.4
2018-04-11T13:02:47.654Z,18.3
2018-04-11T13:04:10.055Z,18.3
2018-04-11T13:05:32.424Z,17.2
2018-04-11T13:06:59.875Z,17.2
2018-04-11T13:08:22.275Z,17.9
2018-04-11T13:09:44.635Z,18
2018-04-11T13:11:04.467Z,18
2018-04-11T13:12:24.295Z,18
2018-04-11T13:13:44.121Z,19.1
2018-04-11T13:15:03.997Z,19
2018-04-11T13:16:23.843Z,18.6
2018-04-11T13:17:46.219Z,17.9
2018-04-11T13:19:08.578Z,17.3
2018-04-11T13:20:30.991Z,17.5
2018-04-11T13:21:55.910Z,17
2018-04-11T13:23:18.274Z,18.5
2018-04-11T13:24:38.093Z,18.4
2018-04-11T13:26:00.508Z,18.3
2018-04-11T13:27:20.326Z,18.2
2018-04-11T13:28:42.728Z,18.2
2018-04-11T13:30:02.568Z,18.1
2018-04-11T13:31:27.456Z,18.1
2018-04-11T13:32:52.380Z,18.3
2018-04-11T13:34:14.736Z,18.3
2018-04-11T13:35:34.608Z,18.5
2018-04-11T13:36:59.492Z,18.6
2018-04-11T13:38:21.875Z,18.6
2018-04-11T13:39:46.748Z,18.5
2018-04-11T13:41:06.573Z,18.4
2018-04-11T13:42:26.424Z,18.3
2018-04-11T13:43:48.774Z,18.3
2018-04-11T13:45:11.218Z,18.2
2018-04-11T13:46:31.118Z,18.3
2018-04-11T13:47:50.989Z,18.9
2018-04-11T13:49:10.901Z,18.9
2018-04-11T13:50:30.812Z,18.9
2018-04-11T13:51:55.732Z,19
2018-04-11T13:53:15.600Z,18.7
2018-04-11T13:54:40.526Z,18
2018-04-11T13:56:00.446Z,17.7
2018-04-11T13:57:22.799Z,19.1
2018-04-11T13:58:42.622Z,19.1
2018-04-11T14:00:02.446Z,19.1
2018-04-11T14:01:24.860Z,19.1
2018-04-11T14:02:44.744Z,19
2018-04-11T14:04:12.229Z,19
2018-04-11T14:05:32.080Z,18.7
2018-04-11T14:06:56.961Z,18.7
2018-04-11T14:08:19.354Z,18.7
2018-04-11T14:09:41.718Z,18.8
2018-04-11T14:11:11.702Z,18.8
2018-04-11T14:12:31.575Z,19.1
2018-04-11T14:13:56.513Z,19.2
2018-04-11T14:15:16.391Z,19.3
2018-04-11T14:16:43.836Z,19.2
2018-04-11T14:18:03.709Z,19.3
2018-04-11T14:19:26.109Z,19.3
2018-04-11T14:20:46.000Z,19.3
2018-04-11T14:22:08.350Z,19.4
2018-04-11T14:23:28.228Z,19.5
2018-04-11T14:24:53.109Z,19.5
2018-04-11T14:26:23.069Z,19.7
2018-04-11T14:27:45.452Z,19.6
2018-04-11T14:29:05.308Z,19.8
2018-04-11T14:30:40.382Z,19.8
2018-04-11T14:32:02.779Z,19.9
2018-04-11T14:33:25.143Z,20
2018-04-11T14:34:45.017Z,20
2018-04-11T14:36:09.948Z,20
2018-04-11T14:37:29.782Z,20
2018-04-11T14:38:59.767Z,20.1
2018-04-11T14:40:19.590Z,20.2
2018-04-11T14:41:47.082Z,20.2
2018-04-11T14:43:12.001Z,20.3
2018-04-11T14:44:34.414Z,20.3
2018-04-11T14:45:54.232Z,20.4
2018-04-11T14:47:24.221Z,20.4
2018-04-11T14:48:44.039Z,20.4
2018-04-11T14:50:03.873Z,20.4
2018-04-11T14:51:31.337Z,20.5
2018-04-11T14:52:56.227Z,20.5
2018-04-11T14:54:23.690Z,20.5
2018-04-11T14:55:46.117Z,20.5
2018-04-11T14:57:05.971Z,20.5
2018-04-11T14:58:28.336Z,20.4
2018-04-11T14:59:53.228Z,20.4
2018-04-11T15:01:15.617Z,20.3
2018-04-11T15:02:35.470Z,20.3
2018-04-11T15:03:57.879Z,19.9
2018-04-11T15:05:22.768Z,20.3
2018-04-11T15:06:42.592Z,20.3
2018-04-11T15:08:12.552Z,20.5
2018-04-11T15:09:39.991Z,20
2018-04-11T15:11:02.396Z,19.9
2018-04-11T15:12:22.240Z,19.7
2018-04-11T15:13:47.133Z,19.6
2018-04-11T15:15:06.963Z,19.5
2018-04-11T15:16:34.384Z,19.6
2018-04-11T15:17:56.766Z,19.5
2018-04-11T15:19:16.614Z,19.4
2018-04-11T15:20:36.439Z,19.5
2018-04-11T15:21:56.281Z,19.5
2018-04-11T15:23:23.725Z,19.5
2018-04-11T15:24:43.557Z,19.5
2018-04-11T15:26:05.935Z,19.5
2018-04-11T15:27:25.830Z,19.3
2018-04-11T15:28:45.713Z,19.4
2018-04-11T15:30:05.556Z,18.8
2018-04-11T15:31:38.052Z,19.7
2018-04-11T15:32:57.872Z,19.7
2018-04-11T15:34:30.386Z,19.7
2018-04-11T15:35:50.227Z,19.6
2018-04-11T15:37:15.157Z,19.5
2018-04-11T15:38:34.998Z,19.4
2018-04-11T15:40:07.503Z,19.2
2018-04-11T15:41:29.859Z,19
2018-04-11T15:42:52.275Z,18.6
2018-04-11T15:44:14.664Z,18.5
2018-04-11T15:45:34.477Z,18.1
2018-04-11T15:46:59.358Z,17.1
2018-04-11T15:48:19.232Z,17
2018-04-11T15:49:39.060Z,16.8
2018-04-11T15:51:03.985Z,16.2
2018-04-11T15:52:26.344Z,16.4
2018-04-11T15:53:46.202Z,16.1
2018-04-11T15:55:06.073Z,17.1
2018-04-11T15:56:36.005Z,16.9
2018-04-11T15:57:55.893Z,15.6
2018-04-11T15:59:20.829Z,16.2
2018-04-11T16:00:40.675Z,15.8
2018-04-11T16:02:03.073Z,15.6
2018-04-11T16:03:25.473Z,16.6
2018-04-11T16:04:50.394Z,16.6
2018-04-11T16:06:10.290Z,16.7
2018-04-11T16:07:30.139Z,16.4
2018-04-11T16:08:52.504Z,16.4
2018-04-11T16:10:27.506Z,16.6
2018-04-11T16:11:47.375Z,16.8
2018-04-11T16:13:07.256Z,17.1
2018-04-11T16:14:27.111Z,17
2018-04-11T16:15:49.463Z,17
2018-04-11T16:17:11.817Z,17
2018-04-11T16:18:44.278Z,16.9
2018-04-11T16:20:21.816Z,17
2018-04-11T16:21:41.669Z,16.7
2018-04-11T16:23:01.516Z,16.4
2018-04-11T16:24:26.398Z,16.2
2018-04-11T16:25:46.218Z,16.2
2018-04-11T16:27:06.052Z,16.4
2018-04-11T16:28:25.877Z,16.4
2018-04-11T16:29:45.733Z,16.1
2018-04-11T16:31:10.652Z,16.6
2018-04-11T16:32:30.514Z,16.6
2018-04-11T16:33:50.357Z,16.6
2018-04-11T16:35:10.267Z,16.6
2018-04-11T16:36:30.148Z,16.6
2018-04-11T16:37:55.063Z,16.4
2018-04-11T16:39:14.950Z,16.4
2018-04-11T16:40:37.331Z,16.3
2018-04-11T16:41:57.200Z,16.3
2018-04-11T16:43:17.026Z,16.4
2018-04-11T16:44:39.425Z,16.5
2018-04-11T16:45:59.269Z,16.3
2018-04-11T16:47:21.669Z,16.3
2018-04-11T16:48:41.493Z,16.3
2018-04-11T16:50:01.353Z,16.3
2018-04-11T16:51:28.783Z,16.2
2018-04-11T16:52:56.189Z,16.1
2018-04-11T16:54:16.030Z,16.2
2018-04-11T16:55:35.891Z,16.2
2018-04-11T16:57:00.803Z,16.1
2018-04-11T16:58:20.646Z,16.1
2018-04-11T16:59:40.547Z,16.2
2018-04-11T17:01:00.403Z,16.2
2018-04-11T17:02:22.753Z,16.3
2018-04-11T17:04:00.372Z,16.1
2018-04-11T17:05:25.296Z,16.2
2018-04-11T17:06:47.661Z,16.2
2018-04-11T17:08:22.728Z,16.1
2018-04-11T17:09:42.553Z,16.2
2018-04-11T17:11:02.387Z,16.2
2018-04-11T17:12:24.822Z,16.1
2018-04-11T17:13:44.673Z,16.1
2018-04-11T17:15:04.501Z,16.1
2018-04-11T17:16:24.364Z,16
2018-04-11T17:17:44.239Z,15.9
2018-04-11T17:19:06.596Z,16
2018-04-11T17:20:26.452Z,16
2018-04-11T17:21:46.352Z,16
2018-04-11T17:23:06.224Z,16.1
2018-04-11T17:24:26.047Z,15.9
2018-04-11T17:25:53.475Z,15.9
2018-04-11T17:27:15.829Z,15.9
2018-04-11T17:28:35.659Z,15.8
2018-04-11T17:29:55.521Z,15.8
2018-04-11T17:31:17.900Z,15.8
2018-04-11T17:32:42.787Z,15.8
2018-04-11T17:34:02.613Z,15.8
2018-04-11T17:35:22.432Z,15.7
2018-04-11T17:36:44.811Z,15.7
2018-04-11T17:38:07.179Z,15.7
2018-04-11T17:39:27.035Z,15.7
2018-04-11T17:40:46.901Z,15.7
2018-04-11T17:42:14.379Z,15.6
2018-04-11T17:43:36.753Z,15.6
2018-04-11T17:44:56.621Z,15.5
2018-04-11T17:46:16.447Z,15.5
2018-04-11T17:47:36.273Z,15.5
2018-04-11T17:49:06.251Z,15.5
2018-04-11T17:50:31.192Z,15.5
2018-04-11T17:51:51.035Z,15.3
2018-04-11T17:53:10.862Z,15.4
2018-04-11T17:54:30.684Z,15.4
2018-04-11T17:55:50.562Z,15.3
2018-04-11T17:57:10.451Z,15.4
2018-04-11T17:58:35.403Z,15.4
2018-04-11T18:00:00.345Z,15.3
2018-04-11T18:01:22.706Z,15.3
2018-04-11T18:02:42.544Z,15.3
2018-04-11T18:04:02.386Z,15.3
2018-04-11T18:05:22.236Z,15.1
2018-04-11T18:06:42.066Z,14.7
2018-04-11T18:08:01.906Z,14.7
2018-04-11T18:09:21.735Z,14.7
2018-04-11T18:10:41.574Z,14.8
2018-04-11T18:12:01.448Z,15
2018-04-11T18:13:28.870Z,15
2018-04-11T18:14:48.695Z,15
2018-04-11T18:16:13.584Z,15
2018-04-11T18:17:33.410Z,14.9
2018-04-11T18:18:58.301Z,14.9
2018-04-11T18:20:20.672Z,15.1
2018-04-11T18:21:40.547Z,15.1
2018-04-11T18:23:00.373Z,15.1